Tiempo atmosférico en la estación meteorológica de Andorra, Teruel (762 m.)



Fecha
DESCASC
Temp. máxima en grados centígrados (hora)
DESCASC
Temp. mínima en grados centígrados (hora)
DESCASC
Temp. media en grados centígrados
DESCASC
Racha de viento máxima en m/sg (hora)
DESCASC
Velocidad máxima media en intervalos de 10 minutos(hora)
DESCASC
Precipitaciones diarias en mm
DESCASC
Precipitaciones de 00:00 a 06:00 en mm
DESCASC
Precipitaciones de 06:00 a 12:00 en mm
DESCASC
Precipitaciones de 12:00 a 18:00 en mm
DESCASC
Precipitaciones de 18:00 a 24:00 en mm
DESCASC
26-07-2019 25.3 (12:50) 18.5 (00:00) 21.9 11.94 (07:00) 8.61 (07:00) 5.2 0 0.2 1.4 3.6
20-08-2019 19.7 (00:00) 14.2 (00:00) 17 8.61 (12:30) 6.39 (12:30) 0.8 0 0.2 0.6 0
21-08-2019 25 (15:30) 16 (00:00) 20.5 9.72 (14:40) 6.67 (15:40) 0.2 0 0 0.2 0
10-08-2019 29.4 (16:20) 19.1 (00:00) 24.3 11.39 (00:10) 9.17 (00:10) 0 0 0 0 0
24-08-2019 31 (17:00) 19 (00:00) 25 10.56 (15:20) 6.67 (16:30) 0 0 0 0 0
23-08-2019 29 (15:50) 15.5 (00:00) 22.3 11.11 (17:00) 8.33 (20:00) 0 0 0 0 0
22-08-2019 27.3 (16:50) 14.5 (00:00) 20.9 9.72 (13:50) 6.39 (13:50) 0 0 0 0 0
19-08-2019 26 (15:20) 15.7 (00:00) 20.8 12.78 (00:10) 9.72 (00:10) 0 0 0 0 0
18-08-2019 33.8 (17:00) 22.1 (00:00) 27.9 16.67 (22:30) 11.11 (22:40) 0 0 0 0 0
17-08-2019 32.8 (17:30) 19.5 (00:00) 26.1 11.11 (18:20) 8.61 (18:20) 0 0 0 0 0
16-08-2019 29.9 (17:50) 17.3 (00:00) 23.6 8.61 (15:40) 6.94 (00:40) 0 0 0 0 0
15-08-2019 29.1 (16:50) 17.1 (00:00) 23.1 10.28 (15:10) 7.5 (22:20) 0 0 0 0 0
14-08-2019 30.2 (17:20) 14.6 (00:00) 22.4 10.56 (00:40) 8.61 (00:50) 0 0 0 0 0
13-08-2019 25 (16:20) 13.3 (00:00) 19.2 13.89 (04:50) 11.39 (02:50) 0 0 0 0 0
12-08-2019 24.5 (16:50) 14.2 (00:00) 19.3 13.61 (15:50) 10.83 (10:20) 0 0 0 0 0
11-08-2019 28.1 (15:50) 18.1 (00:00) 23.1 11.11 (22:40) 8.61 (21:40) 0 0 0 0 0
09-08-2019 37.4 (17:00) 24 (00:00) 30.7 15.83 (21:00) 11.94 (20:40) 0 0 0 0 0
08-08-2019 33.6 (15:10) 20.3 (00:00) 26.9 11.67 (18:40) 8.89 (18:40) 0 0 0 0 0
07-08-2019 29 (00:10) 20.7 (00:00) 24.9 11.67 (00:10) 9.17 (00:10) 0 0 0 0 0
06-08-2019 32.1 (15:50) 18.9 (00:00) 25.5 11.67 (23:59) 9.44 (23:59) 0 0 0 0 0
05-08-2019 32.2 (16:40) 18.5 (00:00) 25.4 11.11 (16:50) 8.61 (19:20) 0 0 0 0 0
04-08-2019 32.9 (16:30) 20.6 (00:00) 26.8 12.78 (17:20) 9.17 (19:30) 0 0 0 0 0
03-08-2019 33 (16:40) 19.6 (00:00) 26.3 12.22 (16:30) 8.89 (17:50) 0 0 0 0 0
02-08-2019 29.7 (18:10) 16.9 (00:00) 23.3 9.17 (01:30) 6.94 (01:30) 0 0 0 0 0
01-08-2019 29.8 (17:20) 16.7 (00:00) 23.3 10.28 (18:40) 7.5 (19:20) 0 0 0 0 0
29-07-2019 30.4 (18:00) 16.3 (00:00) 23.3 12.78 (19:40) 9.17 (19:30) 0 0 0 0 0
31-07-2019 27.5 (17:00) 13 (00:00) 20.3 12.22 (16:30) 8.61 (16:40) 0 0 0 0 0
30-07-2019 26.7 (16:50) 14.3 (00:00) 20.5 12.22 (00:20) 9.72 (02:30) 0 0 0 0 0
28-07-2019 25.6 (16:50) 12.9 (00:00) 19.3 17.78 (02:50) 15 (02:50) 0 0 0 0 0
27-07-2019 24.7 (14:30) 15.3 (00:00) 20 15 (19:00) 10.28 (19:00) 0 0 0 0 0

Gráficas

Temp. máximas Temp. mínimas Temp. medias Precipitaciones Rachas de viento máximas Velocidades máximas media en intervalos de 10 minutos

Datos horarios

Fecha y hora oficial Temperatura (ºC) Velocidad del viento (km/h) Dirección del viento Racha (km/h) Dirección de racha Precipitación (mm) Presión (hPa) Tendencia (hPa) Humedad (%)
2019-08-24 23:00:00 24 12 Sur 21 Sur 0 -- -- 47
2019-08-24 22:00:00 24.6 16 Sur 24 Sur 0 -- -- 48
2019-08-24 21:00:00 25.7 12 Sudeste 28 Sudeste 0 -- -- 48
2019-08-24 20:00:00 27.9 17 Este 28 Este 0 -- -- 42
2019-08-24 19:00:00 29.1 9 Nordeste 26 Nordeste 0 -- -- 23
2019-08-24 18:00:00 29.6 19 Nordeste 30 Nordeste 0 -- -- 25
2019-08-24 17:00:00 31 8 Norte 34 Este 0 -- -- 25
2019-08-24 16:00:00 29.3 12 Este 38 Este 0 -- -- 28
2019-08-24 15:00:00 29.4 22 Este 35 Este 0 -- -- 28
2019-08-24 14:00:00 29.4 14 Nordeste 30 Este 0 -- -- 32
2019-08-24 13:00:00 28.3 14 Este 33 Este 0 -- -- 34
2019-08-24 12:00:00 27.5 14 Este 25 Nordeste 0 -- -- 36
2019-08-24 11:00:00 26 13 Este 18 Este 0 -- -- 38
2019-08-24 10:00:00 23 2 Sudoeste 7 Nordeste 0 -- -- 48
2019-08-24 09:00:00 21.1 4 Este 12 Oeste 0 -- -- 52
2019-08-24 08:00:00 19.5 8 Oeste 10 Oeste 0 -- -- 57
2019-08-24 07:00:00 19.3 10 Oeste 21 Oeste 0 -- -- 57
2019-08-24 06:00:00 19 16 Oeste 20 Oeste 0 -- -- 62
2019-08-24 05:00:00 19.4 17 Oeste 19 Oeste 0 -- -- 58
2019-08-24 04:00:00 19.9 11 Sudoeste 15 Sudoeste 0 -- -- 59
2019-08-24 03:00:00 20.1 14 Sur 19 Sur 0 -- -- 59
2019-08-24 02:00:00 20.6 12 Sudoeste 16 Sur 0 -- -- 58
2019-08-24 01:00:00 21.6 11 Sur 15 Sudoeste 0 -- -- 56
2019-08-24 00:00:00 21.4 11 Sudoeste 25 Sur 0 -- -- 58
2019-08-23 23:00:00 22.5 18 Sur 24 Sur 0 -- -- 58
2019-08-23 22:00:00 23.5 15 Sur 30 Sudeste 0 -- -- 57
2019-08-23 21:00:00 24.9 15 Sudeste 37 Este 0 -- -- 53
2019-08-23 20:00:00 27.2 30 Este 38 Este 0 -- -- 36
2019-08-23 19:00:00 27.9 25 Este 38 Este 0 -- -- 33
2019-08-23 18:00:00 28.4 23 Este 37 Nordeste 0 -- -- 34
2019-08-23 17:00:00 28.7 24 Nordeste 40 Nordeste 0 -- -- 33
2019-08-23 16:00:00 29 15 Nordeste 29 Este 0 -- -- 30
2019-08-23 15:00:00 28.4 17 Este 30 Este 0 -- -- 30
2019-08-23 14:00:00 27.7 14 Nordeste 28 Este 0 -- -- 34
2019-08-23 13:00:00 26.9 15 Nordeste 26 Nordeste 0 -- -- 39
2019-08-23 12:00:00 26 13 Este 22 Nordeste 0 -- -- 41
2019-08-23 11:00:00 24.6 6 Nordeste 12 Este 0 -- -- 48
2019-08-23 10:00:00 20.6 9 Oeste 14 Noroeste 0 -- -- 58
2019-08-23 09:00:00 17.1 11 Oeste 17 Oeste 0 -- -- 67
2019-08-23 08:00:00 15.6 14 Oeste 16 Oeste 0 -- -- 68
2019-08-23 07:00:00 16.7 12 Oeste 14 Oeste 0 -- -- 65
2019-08-23 06:00:00 17.4 9 Oeste 17 Oeste 0 -- -- 61
2019-08-23 05:00:00 18.8 3 Noroeste 10 Oeste 0 -- -- 62
2019-08-23 04:00:00 18.9 10 Oeste 13 Oeste 0 -- -- 58
2019-08-23 03:00:00 19.1 11 Oeste 13 Oeste 0 -- -- 60
2019-08-23 02:00:00 19.5 9 Sudoeste 13 Sur 0 -- -- 60
2019-08-23 01:00:00 21.4 11 Sur 14 Sur 0 -- -- 63
2019-08-23 00:00:00 21.8 8 Sur 12 Sudeste 0 -- -- 45
2019-08-22 23:00:00 22.8 7 Sudeste 10 Este 0 -- -- 42
2019-08-22 22:00:00 23 5 Este 13 Norte 0 -- -- 40
2019-08-22 21:00:00 23.5 9 Nordeste 19 Nordeste 0 -- -- 40
2019-08-22 20:00:00 24.7 14 Nordeste 19 Nordeste 0 -- -- 38
2019-08-22 19:00:00 25.6 12 Nordeste 26 Nordeste 0 -- -- 38
2019-08-22 18:00:00 25.6 17 Nordeste 27 Norte 0 -- -- 40
2019-08-22 17:00:00 27.1 11 Norte 22 Noroeste 0 -- -- 38
2019-08-22 16:00:00 26.5 5 Norte 28 Este 0 -- -- 40
2019-08-22 15:00:00 25.4 13 Nordeste 32 Nordeste 0 -- -- 41
2019-08-22 14:00:00 24.9 21 Este 35 Este 0 -- -- 42
2019-08-22 13:00:00 24.7 12 Nordeste 19 Nordeste 0 -- -- 43
2019-08-22 12:00:00 22.7 5 Sudeste 12 Oeste 0 -- -- 48
2019-08-22 11:00:00 21.2 5 Sudeste 13 Oeste 0 -- -- 52
2019-08-22 10:00:00 18.1 6 Oeste 15 Oeste 0 -- -- 61
2019-08-22 09:00:00 15.8 8 Oeste 16 Sudoeste 0 -- -- 71
2019-08-22 08:00:00 14.6 12 Oeste 14 Oeste 0 -- -- 76
2019-08-22 07:00:00 14.9 10 Oeste 14 Oeste 0 -- -- 78
2019-08-22 06:00:00 14.6 13 Sudoeste 18 Oeste 0 -- -- 80
2019-08-22 05:00:00 15.8 14 Oeste 20 Oeste 0 -- -- 77
2019-08-22 04:00:00 16.5 13 Oeste 20 Oeste 0 -- -- 78
2019-08-22 03:00:00 16.8 16 Oeste 22 Oeste 0 -- -- 80
2019-08-22 02:00:00 17.9 15 Oeste 22 Oeste 0 -- -- 73
2019-08-22 01:00:00 18.3 15 Oeste 19 Oeste 0 -- -- 69
2019-08-22 00:00:00 18.5 15 Oeste 24 Oeste 0 -- -- 68
2019-08-21 23:00:00 18.6 15 Oeste 20 Sudoeste 0 -- -- 69
2019-08-21 22:00:00 19.3 11 Sudoeste 22 Oeste 0 -- -- 68
2019-08-21 21:00:00 19.4 18 Sur 28 Sudoeste 0 -- -- 69
2019-08-21 20:00:00 20.3 21 Sudoeste 32 Sudoeste 0 -- -- 74
2019-08-21 19:00:00 21.3 9 Oeste 14 Sudoeste 0 -- -- 72
2019-08-21 18:00:00 21.3 6 Norte 17 Este 0.2 -- -- 72
2019-08-21 17:00:00 22.4 9 Nordeste 26 Nordeste 0 -- -- 63
2019-08-21 16:00:00 23.6 21 Nordeste 31 Nordeste 0 -- -- 56
2019-08-21 15:00:00 24.8 20 Nordeste 35 Nordeste 0 -- -- 53
2019-08-21 14:00:00 23.6 15 Nordeste 25 Nordeste 0 -- -- 56
2019-08-21 13:00:00 23.5 13 Nordeste 24 Este 0 -- -- 56
2019-08-21 12:00:00 22.3 12 Nordeste 23 Nordeste 0 -- -- 59
2019-08-21 11:00:00 21 9 Este 14 Nordeste 0 -- -- 64
2019-08-21 10:00:00 17.7 10 Oeste 16 Sudoeste 0 -- -- 73
2019-08-21 09:00:00 16.5 6 Sur 16 Sur 0 -- -- 80
2019-08-21 08:00:00 16.1 5 Sur 8 Sur 0 -- -- 76
2019-08-21 07:00:00 16 6 Noroeste 8 Noroeste 0 -- -- 74
2019-08-21 06:00:00 16.2 3 Norte 6 Nordeste 0 -- -- 75
2019-08-21 05:00:00 16.5 0 Calma 11 Oeste 0 -- -- 72
2019-08-21 04:00:00 16.4 8 Oeste 13 Noroeste 0 -- -- 73
2019-08-21 03:00:00 16.6 8 Noroeste 14 Noroeste 0 -- -- 73
2019-08-21 02:00:00 16.9 8 Noroeste 20 Noroeste 0 -- -- 76
2019-08-21 01:00:00 17.6 11 Noroeste 17 Noroeste 0 -- -- 82
2019-08-21 00:00:00 17.7 8 Sudoeste 11 Sudoeste 0 -- -- 85
2019-08-20 23:00:00 17.5 9 Sudoeste 15 Sudoeste 0 -- -- 87
2019-08-20 22:00:00 17.2 13 Sudoeste 18 Sur 0 -- -- 88
2019-08-20 21:00:00 17.6 10 Sur 13 Sur 0 -- -- 85
2019-08-20 20:00:00 18.3 9 Este 13 Este 0 -- -- 80
2019-08-20 19:00:00 18.3 5 Nordeste 12 Este 0 -- -- 80
2019-08-20 18:00:00 18.1 6 Este 12 Este 0 -- -- 81
2019-08-20 17:00:00 18 5 Nordeste 10 Norte 0 -- -- 81
2019-08-20 16:00:00 17.3 6 Sudoeste 17 Oeste 0 -- -- 82
2019-08-20 15:00:00 16.1 13 Oeste 20 Oeste 0 -- -- 91
2019-08-20 14:00:00 15 12 Noroeste 25 Noroeste 0.2 -- -- 96
2019-08-20 13:00:00 14.3 17 Noroeste 31 Noroeste 0.4 -- -- 96
2019-08-20 12:00:00 15 9 Noroeste 21 Oeste 0 -- -- 96
2019-08-20 11:00:00 14.6 16 Noroeste 22 Oeste 0.2 -- -- 95
2019-08-20 10:00:00 14.9 14 Noroeste 22 Noroeste 0 -- -- 94
2019-08-20 09:00:00 15.4 9 Noroeste 15 Oeste 0 -- -- 91
2019-08-20 08:00:00 15.1 8 Oeste 20 Oeste 0 -- -- 90
2019-08-20 07:00:00 14.8 19 Noroeste 27 Noroeste 0 -- -- 88
2019-08-20 06:00:00 15.8 13 Noroeste 23 Noroeste 0 -- -- 82
2019-08-20 05:00:00 16.4 16 Noroeste 24 Noroeste 0 -- -- 78
2019-08-20 04:00:00 17 18 Noroeste 29 Norte 0 -- -- 74
2019-08-20 03:00:00 18.3 15 Noroeste 22 Noroeste 0 -- -- 70
2019-08-20 02:00:00 19 9 Noroeste 17 Noroeste 0 -- -- 65
2019-08-20 01:00:00 19.5 10 Noroeste 21 Noroeste 0 -- -- 62
2019-08-20 00:00:00 19.7 15 Noroeste 28 Noroeste 0 -- -- 60
2019-08-19 23:00:00 20.2 23 Noroeste 29 Norte 0 -- -- 57
2019-08-19 22:00:00 21.5 15 Norte 28 Norte 0 -- -- 53
2019-08-19 21:00:00 22.8 18 Norte 33 Norte 0 -- -- 51
2019-08-19 20:00:00 24.5 18 Norte 31 Nordeste 0 -- -- 52
2019-08-19 19:00:00 24.9 17 Nordeste 31 Nordeste 0 -- -- 58
2019-08-19 18:00:00 25.2 17 Nordeste 33 Nordeste 0 -- -- 49
2019-08-19 17:00:00 25.5 23 Nordeste 36 Nordeste 0 -- -- 48
2019-08-19 16:00:00 25.9 27 Nordeste 41 Nordeste 0 -- -- 46
2019-08-19 15:00:00 25.3 21 Nordeste 35 Nordeste 0 -- -- 48
2019-08-19 14:00:00 25.2 19 Nordeste 30 Nordeste 0 -- -- 47
2019-08-19 13:00:00 24.2 15 Nordeste 28 Nordeste 0 -- -- 49
2019-08-19 12:00:00 23.2 6 Norte 13 Norte 0 -- -- 53
2019-08-19 11:00:00 20.5 6 Oeste 18 Oeste 0 -- -- 61
2019-08-19 10:00:00 18.6 10 Oeste 26 Oeste 0 -- -- 65
2019-08-19 09:00:00 16.8 23 Oeste 30 Oeste 0 -- -- 73
2019-08-19 08:00:00 15.9 17 Oeste 26 Oeste 0 -- -- 77
2019-08-19 07:00:00 15.7 19 Oeste 27 Oeste 0 -- -- 79
2019-08-19 06:00:00 16 18 Oeste 26 Oeste 0 -- -- 78
2019-08-19 05:00:00 16.8 19 Oeste 27 Oeste 0 -- -- 76
2019-08-19 04:00:00 17.4 17 Oeste 27 Oeste 0 -- -- 76
2019-08-19 03:00:00 18.3 23 Oeste 35 Oeste 0 -- -- 73
2019-08-19 02:00:00 19.6 23 Oeste 35 Oeste 0 -- -- 70
2019-08-19 01:00:00 20.6 28 Oeste 46 Oeste 0 -- -- 67
2019-08-19 00:00:00 22.1 33 Oeste 47 Oeste 0 -- -- 62
2019-08-18 23:00:00 25.2 32 Noroeste 60 Noroeste 0 -- -- 57
2019-08-18 22:00:00 29.5 11 Sur 21 Sur 0 -- -- 44
2019-08-18 21:00:00 30.3 11 Sur 19 Sur 0 -- -- 47
2019-08-18 20:00:00 31 10 Sudeste 34 Nordeste 0 -- -- 50
2019-08-18 19:00:00 31.5 17 Este 41 Este 0 -- -- 49
2019-08-18 18:00:00 32.7 27 Este 49 Este 0 -- -- 38
2019-08-18 17:00:00 33.8 24 Este 37 Este 0 -- -- 31
2019-08-18 16:00:00 32.8 20 Este 32 Este 0 -- -- 32
2019-08-18 15:00:00 31.8 23 Este 41 Este 0 -- -- 36
2019-08-18 14:00:00 30.7 21 Nordeste 31 Nordeste 0 -- -- 39
2019-08-18 13:00:00 29.8 20 Nordeste 30 Nordeste 0 -- -- 42
2019-08-18 12:00:00 28.1 19 Nordeste 27 Nordeste 0 -- -- 53
2019-08-18 11:00:00 27.3 14 Nordeste 21 Nordeste 0 -- -- 54
2019-08-18 10:00:00 25.1 8 Este 12 Nordeste 0 -- -- 64
2019-08-18 09:00:00 23.9 6 Este 10 Este 0 -- -- 68
2019-08-18 08:00:00 23.4 5 Este 9 Sudoeste 0 -- -- 63
2019-08-18 07:00:00 25.4 11 Sudoeste 18 Sudoeste 0 -- -- 40
2019-08-18 06:00:00 25.3 15 Sudoeste 24 Sudoeste 0 -- -- 42
2019-08-18 05:00:00 25.9 10 Oeste 35 Sudoeste 0 -- -- 44
2019-08-18 04:00:00 26 22 Oeste 35 Sudoeste 0 -- -- 46
2019-08-18 03:00:00 27.5 30 Sudoeste 40 Sudoeste 0 -- -- 42
2019-08-18 02:00:00 27.1 26 Sudoeste 35 Sudoeste 0 -- -- 42
2019-08-18 01:00:00 26.7 24 Sudoeste 32 Oeste 0 -- -- 44
2019-08-18 00:00:00 24.9 19 Sur 26 Sur 0 -- -- 66
2019-08-17 23:00:00 25.7 18 Sur 32 Sur 0 -- -- 67
2019-08-17 22:00:00 26.7 21 Sur 28 Sur 0 -- -- 65
2019-08-17 21:00:00 28.2 19 Sudeste 30 Este 0 -- -- 59
2019-08-17 20:00:00 30.4 17 Este 34 Este 0 -- -- 51
2019-08-17 19:00:00 31.6 23 Este 40 Este 0 -- -- 42
2019-08-17 18:00:00 32.7 26 Este 35 Este 0 -- -- 35
2019-08-17 17:00:00 32.4 18 Nordeste 29 Nordeste 0 -- -- 37
2019-08-17 16:00:00 31.9 19 Nordeste 29 Este 0 -- -- 39
2019-08-17 15:00:00 30.5 17 Nordeste 28 Nordeste 0 -- -- 43
2019-08-17 14:00:00 29.6 18 Nordeste 31 Nordeste 0 -- -- 47
2019-08-17 13:00:00 28.3 15 Nordeste 26 Nordeste 0 -- -- 53
2019-08-17 12:00:00 27.3 14 Nordeste 23 Nordeste 0 -- -- 57
2019-08-17 11:00:00 26.4 9 Nordeste 14 Este 0 -- -- 59
2019-08-17 10:00:00 24 5 Este 17 Oeste 0 -- -- 67
2019-08-17 09:00:00 20.6 13 Oeste 19 Oeste 0 -- -- 76
2019-08-17 08:00:00 19.7 12 Oeste 14 Sudoeste 0 -- -- 77
2019-08-17 07:00:00 21.4 2 Oeste 10 Noroeste 0 -- -- 75
2019-08-17 06:00:00 21 6 Oeste 13 Noroeste 0 -- -- 73
2019-08-17 05:00:00 22.6 4 Sudoeste 8 Sudoeste 0 -- -- 70
2019-08-17 04:00:00 23.2 3 Nordeste 19 Oeste 0 -- -- 67
2019-08-17 03:00:00 22.8 12 Sudoeste 21 Sudoeste 0 -- -- 71
2019-08-17 02:00:00 22.4 14 Sudoeste 16 Sur 0 -- -- 75
2019-08-17 01:00:00 24.1 14 Sur 21 Sur 0 -- -- 68
2019-08-17 00:00:00 24.7 17 Sur 21 Sur 0 -- -- 65
2019-08-16 23:00:00 24.9 16 Sur 26 Sur 0 -- -- 64
2019-08-16 22:00:00 26.1 14 Sudeste 23 Sudeste 0 -- -- 60
2019-08-16 21:00:00 27.7 13 Este 31 Este 0 -- -- 54
2019-08-16 20:00:00 29 20 Este 30 Este 0 -- -- 38
2019-08-16 19:00:00 29.3 18 Este 27 Nordeste 0 -- -- 37
2019-08-16 18:00:00 29.7 18 Nordeste 28 Nordeste 0 -- -- 35
2019-08-16 17:00:00 29.5 17 Nordeste 30 Nordeste 0 -- -- 35
2019-08-16 16:00:00 28.9 19 Nordeste 31 Nordeste 0 -- -- 36
2019-08-16 15:00:00 28.6 17 Nordeste 27 Este 0 -- -- 36
2019-08-16 14:00:00 26.8 17 Nordeste 30 Este 0 -- -- 39
2019-08-16 13:00:00 25.1 18 Este 28 Este 0 -- -- 41
2019-08-16 12:00:00 23.1 18 Este 27 Este 0 -- -- 45
2019-08-16 11:00:00 21.7 14 Este 22 Este 0 -- -- 49
2019-08-16 10:00:00 19.9 13 Nordeste 20 Este 0 -- -- 53
2019-08-16 09:00:00 19.1 14 Nordeste 17 Nordeste 0 -- -- 55
2019-08-16 08:00:00 17.9 3 Este 13 Sur 0 -- -- 59
2019-08-16 07:00:00 17.3 11 Sudeste 13 Sudeste 0 -- -- 61
2019-08-16 06:00:00 18 10 Este 15 Este 0 -- -- 58
2019-08-16 05:00:00 19.5 5 Norte 8 Oeste 0 -- -- 52
2019-08-16 04:00:00 19.4 8 Oeste 16 Sudoeste 0 -- -- 55
2019-08-16 03:00:00 18.7 15 Sudoeste 21 Sudoeste 0 -- -- 57
2019-08-16 02:00:00 19.6 18 Oeste 26 Oeste 0 -- -- 55
2019-08-16 01:00:00 19.8 23 Oeste 30 Oeste 0 -- -- 53
2019-08-16 00:00:00 20.8 21 Oeste 32 Noroeste 0 -- -- 48
2019-08-15 23:00:00 22 22 Noroeste 34 Noroeste 0 -- -- 43
2019-08-15 22:00:00 23.2 26 Noroeste 34 Noroeste 0 -- -- 40
2019-08-15 21:00:00 25 18 Norte 28 Norte 0 -- -- 36
2019-08-15 20:00:00 26.4 18 Norte 28 Norte 0 -- -- 34
2019-08-15 19:00:00 28.2 16 Noroeste 30 Nordeste 0 -- -- 38
2019-08-15 18:00:00 28.2 13 Norte 30 Norte 0 -- -- 42
2019-08-15 17:00:00 28.5 13 Norte 36 Norte 0 -- -- 42
2019-08-15 16:00:00 28.2 16 Norte 37 Nordeste 0 -- -- 43
2019-08-15 15:00:00 28.1 15 Nordeste 31 Nordeste 0 -- -- 42
2019-08-15 14:00:00 26.7 17 Nordeste 26 Nordeste 0 -- -- 46
2019-08-15 13:00:00 25.3 9 Noroeste 22 Noroeste 0 -- -- 50
2019-08-15 12:00:00 23.9 6 Sudoeste 23 Oeste 0 -- -- 54
2019-08-15 11:00:00 22.2 9 Oeste 21 Oeste 0 -- -- 61
2019-08-15 10:00:00 20.7 14 Oeste 23 Oeste 0 -- -- 65
2019-08-15 09:00:00 18.9 18 Oeste 24 Oeste 0 -- -- 72
2019-08-15 08:00:00 17.4 17 Oeste 24 Oeste 0 -- -- 77
2019-08-15 07:00:00 17.3 18 Oeste 29 Oeste 0 -- -- 76
2019-08-15 06:00:00 17.8 20 Oeste 24 Sudoeste 0 -- -- 71
2019-08-15 05:00:00 18.2 21 Oeste 27 Oeste 0 -- -- 66
2019-08-15 04:00:00 19.2 23 Oeste 30 Oeste 0 -- -- 59
2019-08-15 03:00:00 19.9 25 Oeste 30 Oeste 0 -- -- 54
2019-08-15 02:00:00 20.6 26 Oeste 31 Oeste 0 -- -- 45
2019-08-15 01:00:00 21.9 21 Oeste 23 Oeste 0 -- -- 39
2019-08-15 00:00:00 23.4 13 Oeste 17 Oeste 0 -- -- 35
2019-08-14 23:00:00 24.7 10 Noroeste 12 Noroeste 0 -- -- 33
2019-08-14 22:00:00 25.3 8 Norte 15 Norte 0 -- -- 31
2019-08-14 21:00:00 26 12 Nordeste 19 Nordeste 0 -- -- 30
2019-08-14 20:00:00 27.1 14 Nordeste 24 Nordeste 0 -- -- 28
2019-08-14 19:00:00 27.8 16 Nordeste 28 Nordeste 0 -- -- 26
2019-08-14 18:00:00 29.1 12 Norte 28 Noroeste 0 -- -- 25
2019-08-14 17:00:00 29.4 13 Norte 27 Norte 0 -- -- 25
2019-08-14 16:00:00 29.2 15 Noroeste 31 Noroeste 0 -- -- 24
2019-08-14 15:00:00 28.3 13 Norte 26 Oeste 0 -- -- 25
2019-08-14 14:00:00 27.3 17 Nordeste 27 Nordeste 0 -- -- 25
2019-08-14 13:00:00 26.2 14 Nordeste 23 Nordeste 0 -- -- 28
2019-08-14 12:00:00 24.2 11 Nordeste 19 Este 0 -- -- 33
2019-08-14 11:00:00 22.7 10 Este 23 Nordeste 0 -- -- 38
2019-08-14 10:00:00 22 14 Nordeste 22 Nordeste 0 -- -- 42
2019-08-14 09:00:00 16.9 13 Oeste 21 Sudoeste 0 -- -- 54
2019-08-14 08:00:00 15.1 16 Sudoeste 26 Oeste 0 -- -- 55
2019-08-14 07:00:00 14.8 17 Oeste 28 Sudoeste 0 -- -- 57
2019-08-14 06:00:00 15.2 23 Oeste 27 Oeste 0 -- -- 56
2019-08-14 05:00:00 14.9 26 Oeste 30 Oeste 0 -- -- 59
2019-08-14 04:00:00 14.7 14 Sudoeste 31 Oeste 0 -- -- 62
2019-08-14 03:00:00 15.4 26 Oeste 31 Oeste 0 -- -- 60
2019-08-14 02:00:00 16.1 24 Oeste 36 Oeste 0 -- -- 57
2019-08-14 01:00:00 16.8 28 Oeste 38 Oeste 0 -- -- 54
2019-08-14 00:00:00 17.5 21 Oeste 30 Noroeste 0 -- -- 48
2019-08-13 23:00:00 19.1 25 Noroeste 32 Noroeste 0 -- -- 43
2019-08-13 22:00:00 19.8 16 Noroeste 21 Noroeste 0 -- -- 41
2019-08-13 21:00:00 21.5 11 Norte 21 Norte 0 -- -- 38
2019-08-13 20:00:00 22.8 13 Norte 27 Noroeste 0 -- -- 35
2019-08-13 19:00:00 23.9 17 Norte 32 Norte 0 -- -- 34
2019-08-13 18:00:00 23.6 17 Nordeste 34 Nordeste 0 -- -- 36
2019-08-13 17:00:00 23.7 15 Nordeste 34 Norte 0 -- -- 35
2019-08-13 16:00:00 24.4 16 Norte 35 Norte 0 -- -- 35
2019-08-13 15:00:00 23.8 13 Norte 30 Norte 0 -- -- 35
2019-08-13 14:00:00 22.8 14 Norte 27 Nordeste 0 -- -- 38
2019-08-13 13:00:00 21.6 13 Norte 26 Noroeste 0 -- -- 41
2019-08-13 12:00:00 18.3 14 Oeste 23 Oeste 0 -- -- 47
2019-08-13 11:00:00 16.7 12 Oeste 22 Oeste 0 -- -- 51
2019-08-13 10:00:00 15.7 14 Oeste 23 Oeste 0 -- -- 53
2019-08-13 09:00:00 14.8 16 Oeste 25 Oeste 0 -- -- 56
2019-08-13 08:00:00 13.6 19 Oeste 29 Oeste 0 -- -- 60
2019-08-13 07:00:00 13.4 20 Oeste 39 Oeste 0 -- -- 63
2019-08-13 06:00:00 13.4 30 Oeste 45 Oeste 0 -- -- 65
2019-08-13 05:00:00 13.3 37 Oeste 50 Oeste 0 -- -- 67
2019-08-13 04:00:00 13.5 35 Oeste 47 Oeste 0 -- -- 65
2019-08-13 03:00:00 13.6 39 Oeste 49 Oeste 0 -- -- 64
2019-08-13 02:00:00 13.5 36 Oeste 45 Oeste 0 -- -- 66
2019-08-13 01:00:00 14.2 34 Oeste 41 Oeste 0 -- -- 65
2019-08-13 00:00:00 15.3 26 Oeste 36 Noroeste 0 -- -- 58
2019-08-12 23:00:00 16.4 24 Oeste 37 Noroeste 0 -- -- 52
2019-08-12 22:00:00 17.4 27 Noroeste 40 Noroeste 0 -- -- 49
2019-08-12 21:00:00 18.8 29 Noroeste 47 Noroeste 0 -- -- 44
2019-08-12 20:00:00 21.2 33 Noroeste 48 Noroeste 0 -- -- 38
2019-08-12 19:00:00 23.1 33 Noroeste 48 Noroeste 0 -- -- 36
2019-08-12 18:00:00 24.1 31 Noroeste 49 Noroeste 0 -- -- 33
2019-08-12 17:00:00 24.2 26 Noroeste 48 Noroeste 0 -- -- 34
2019-08-12 16:00:00 23.8 27 Norte 49 Noroeste 0 -- -- 35
2019-08-12 15:00:00 24.3 21 Noroeste 44 Noroeste 0 -- -- 36
2019-08-12 14:00:00 23.3 21 Noroeste 44 Noroeste 0 -- -- 38
2019-08-12 13:00:00 21.8 24 Noroeste 42 Oeste 0 -- -- 43
2019-08-12 12:00:00 20.4 30 Oeste 44 Noroeste 0 -- -- 49
2019-08-12 11:00:00 18.4 29 Oeste 46 Oeste 0 -- -- 55
2019-08-12 10:00:00 16.8 36 Oeste 46 Oeste 0 -- -- 61
2019-08-12 09:00:00 14.8 28 Oeste 38 Oeste 0 -- -- 70
2019-08-12 08:00:00 14.7 35 Oeste 41 Oeste 0 -- -- 71
2019-08-12 07:00:00 14.3 31 Oeste 37 Oeste 0 -- -- 74
2019-08-12 06:00:00 14.5 26 Oeste 34 Oeste 0 -- -- 74
2019-08-12 05:00:00 15.1 21 Oeste 30 Oeste 0 -- -- 72
2019-08-12 04:00:00 15.8 27 Oeste 34 Oeste 0 -- -- 68
2019-08-12 03:00:00 16.5 20 Oeste 27 Oeste 0 -- -- 65
2019-08-12 02:00:00 17.2 19 Oeste 37 Noroeste 0 -- -- 63
2019-08-12 01:00:00 18.5 28 Oeste 38 Oeste 0 -- -- 58
2019-08-12 00:00:00 19.9 23 Noroeste 35 Noroeste 0 -- -- 56
2019-08-11 23:00:00 21.4 28 Noroeste 40 Noroeste 0 -- -- 52
2019-08-11 22:00:00 23.2 27 Noroeste 38 Noroeste 0 -- -- 45
2019-08-11 21:00:00 25.6 26 Noroeste 36 Noroeste 0 -- -- 40
2019-08-11 20:00:00 26.9 13 Nordeste 23 Nordeste 0 -- -- 41
2019-08-11 19:00:00 27.1 9 Nordeste 26 Este 0 -- -- 41
2019-08-11 18:00:00 27.4 15 Nordeste 34 Nordeste 0 -- -- 41
2019-08-11 17:00:00 27.5 13 Nordeste 32 Nordeste 0 -- -- 41
2019-08-11 16:00:00 27.6 18 Norte 33 Norte 0 -- -- 42
2019-08-11 15:00:00 27.3 17 Norte 31 Norte 0 -- -- 44
2019-08-11 14:00:00 26.9 18 Norte 32 Nordeste 0 -- -- 45
2019-08-11 13:00:00 25.6 10 Norte 25 Nordeste 0 -- -- 49
2019-08-11 12:00:00 24.1 11 Noroeste 17 Noroeste 0 -- -- 53
2019-08-11 11:00:00 21.7 4 Sudoeste 26 Noroeste 0 -- -- 60
2019-08-11 10:00:00 19.9 26 Noroeste 34 Noroeste 0 -- -- 65
2019-08-11 09:00:00 19.3 10 Oeste 16 Noroeste 0 -- -- 66
2019-08-11 08:00:00 18.2 12 Oeste 16 Oeste 0 -- -- 69
2019-08-11 07:00:00 18.4 2 Norte 11 Este 0 -- -- 68
2019-08-11 06:00:00 19 6 Este 11 Este 0 -- -- 65
2019-08-11 05:00:00 20.1 6 Nordeste 14 Nordeste 0 -- -- 60
2019-08-11 04:00:00 21.7 9 Nordeste 15 Nordeste 0 -- -- 53
2019-08-11 03:00:00 22.9 3 Noroeste 6 Noroeste 0 -- -- 49
2019-08-11 02:00:00 23.1 6 Sudoeste 17 Oeste 0 -- -- 49
2019-08-11 01:00:00 23.5 13 Oeste 22 Oeste 0 -- -- 50
2019-08-11 00:00:00 24.4 17 Oeste 22 Noroeste 0 -- -- 48
2019-08-10 23:00:00 25.6 11 Norte 20 Norte 0 -- -- 59
2019-08-10 22:00:00 26.7 11 Norte 26 Nordeste 0 -- -- 51
2019-08-10 21:00:00 27.8 19 Nordeste 30 Nordeste 0 -- -- 43
2019-08-10 20:00:00 28.9 21 Nordeste 32 Nordeste 0 -- -- 40
2019-08-10 19:00:00 28.8 21 Nordeste 36 Nordeste 0 -- -- 39
2019-08-10 18:00:00 29.3 28 Nordeste 40 Nordeste 0 -- -- 37
2019-08-10 17:00:00 29.2 26 Nordeste 39 Nordeste 0 -- -- 37
2019-08-10 16:00:00 29.3 19 Este 36 Nordeste 0 -- -- 37
2019-08-10 15:00:00 28.7 18 Nordeste 31 Norte 0 -- -- 38
2019-08-10 14:00:00 27.9 17 Nordeste 34 Nordeste 0 -- -- 40
2019-08-10 13:00:00 26.5 20 Nordeste 28 Nordeste 0 -- -- 42
2019-08-10 12:00:00 26.1 12 Nordeste 25 Nordeste 0 -- -- 45
2019-08-10 11:00:00 25.3 8 Este 19 Nordeste 0 -- -- 47
2019-08-10 10:00:00 22.8 5 Oeste 17 Oeste 0 -- -- 54
2019-08-10 09:00:00 20.8 16 Oeste 22 Oeste 0 -- -- 60
2019-08-10 08:00:00 19.3 17 Oeste 20 Oeste 0 -- -- 66
2019-08-10 07:00:00 19.5 16 Oeste 20 Oeste 0 -- -- 64
2019-08-10 06:00:00 19.9 12 Oeste 21 Noroeste 0 -- -- 61
2019-08-10 05:00:00 21.4 15 Noroeste 21 Noroeste 0 -- -- 58
2019-08-10 04:00:00 21.7 5 Sudoeste 16 Noroeste 0 -- -- 56
2019-08-10 03:00:00 22.1 10 Oeste 27 Oeste 0 -- -- 56
2019-08-10 02:00:00 22.7 16 Oeste 33 Oeste 0 -- -- 58
2019-08-10 01:00:00 23.5 25 Oeste 41 Noroeste 0 -- -- 62
2019-08-10 00:00:00 25 32 Noroeste 53 Noroeste 0 -- -- 60
2019-08-09 23:00:00 29.2 24 Oeste 47 Oeste 0 -- -- 36
2019-08-09 22:00:00 30.8 40 Oeste 53 Oeste 0 -- -- 33
2019-08-09 21:00:00 32.6 42 Oeste 57 Oeste 0 -- -- 29
2019-08-09 20:00:00 35 37 Oeste 48 Oeste 0 -- -- 25
2019-08-09 19:00:00 36.1 34 Oeste 46 Oeste 0 -- -- 24
2019-08-09 18:00:00 37.2 29 Oeste 51 Oeste 0 -- -- 23
2019-08-09 17:00:00 37.4 23 Oeste 42 Oeste 0 -- -- 21
2019-08-09 16:00:00 36.4 24 Oeste 41 Oeste 0 -- -- 22
2019-08-09 15:00:00 35.8 21 Oeste 37 Sudoeste 0 -- -- 23
2019-08-09 14:00:00 35.1 23 Oeste 40 Oeste 0 -- -- 25
2019-08-09 13:00:00 33.6 18 Oeste 28 Oeste 0 -- -- 27
2019-08-09 12:00:00 32.5 14 Sudoeste 33 Sudoeste 0 -- -- 28
2019-08-09 11:00:00 30.6 19 Oeste 35 Oeste 0 -- -- 31
2019-08-09 10:00:00 29.4 15 Oeste 22 Oeste 0 -- -- 34
2019-08-09 09:00:00 26.8 9 Sudoeste 15 Sudoeste 0 -- -- 40
2019-08-09 08:00:00 24.6 9 Sudoeste 18 Sudoeste 0 -- -- 43
2019-08-09 07:00:00 24.3 15 Sudoeste 22 Sur 0 -- -- 43
2019-08-09 06:00:00 24.4 13 Sudoeste 21 Sur 0 -- -- 43
2019-08-09 05:00:00 25.8 10 Sudoeste 21 Sur 0 -- -- 40
2019-08-09 04:00:00 25.4 2 Oeste 34 Sudoeste 0 -- -- 41
2019-08-09 03:00:00 27.9 32 Sudoeste 39 Sudoeste 0 -- -- 36
2019-08-09 02:00:00 27.6 23 Sudoeste 34 Sudoeste 0 -- -- 37
2019-08-09 01:00:00 26.8 12 Sur 22 Sur 0 -- -- 41
2019-08-09 00:00:00 26.8 18 Sur 22 Sur 0 -- -- 45
2019-08-08 23:00:00 27.6 14 Sur 19 Sur 0 -- -- 43
2019-08-08 22:00:00 28.6 15 Sur 21 Sur 0 -- -- 41
2019-08-08 21:00:00 30.6 12 Sur 28 Nordeste 0 -- -- 39
2019-08-08 20:00:00 31.4 23 Nordeste 33 Este 0 -- -- 34
2019-08-08 19:00:00 31.6 19 Este 42 Este 0 -- -- 33
2019-08-08 18:00:00 32.4 21 Este 29 Este 0 -- -- 31
2019-08-08 17:00:00 32.7 10 Norte 30 Nordeste 0 -- -- 31
2019-08-08 16:00:00 32 21 Nordeste 38 Nordeste 0 -- -- 32
2019-08-08 15:00:00 33.4 18 Noroeste 33 Oeste 0 -- -- 29
2019-08-08 14:00:00 31.2 11 Noroeste 26 Oeste 0 -- -- 33
2019-08-08 13:00:00 30.8 10 Sudoeste 19 Noroeste 0 -- -- 34
2019-08-08 12:00:00 28 9 Oeste 20 Sudoeste 0 -- -- 39
2019-08-08 11:00:00 25.7 13 Oeste 23 Oeste 0 -- -- 43
2019-08-08 10:00:00 24.3 16 Oeste 27 Oeste 0 -- -- 48
2019-08-08 09:00:00 22.5 21 Oeste 25 Oeste 0 -- -- 52
2019-08-08 08:00:00 20.5 18 Sudoeste 28 Oeste 0 -- -- 56
2019-08-08 07:00:00 20.5 26 Oeste 30 Oeste 0 -- -- 54
2019-08-08 06:00:00 20.7 23 Oeste 32 Oeste 0 -- -- 52
2019-08-08 05:00:00 21 27 Oeste 33 Oeste 0 -- -- 51
2019-08-08 04:00:00 22 24 Oeste 30 Oeste 0 -- -- 48
2019-08-08 03:00:00 22.3 20 Oeste 24 Oeste 0 -- -- 51
2019-08-08 02:00:00 22.8 20 Oeste 25 Oeste 0 -- -- 48
2019-08-08 01:00:00 23.8 24 Oeste 26 Oeste 0 -- -- 45
2019-08-08 00:00:00 25 9 Sudoeste 12 Sur 0 -- -- 47
2019-08-07 23:00:00 24.9 9 Sudoeste 11 Sur 0 -- -- 47
2019-08-07 22:00:00 25.5 6 Sur 15 Sudeste 0 -- -- 46
2019-08-07 21:00:00 25.9 7 Este 15 Sudeste 0 -- -- 46
2019-08-07 20:00:00 26.5 8 Este 18 Este 0 -- -- 45
2019-08-07 19:00:00 27 9 Nordeste 25 Este 0 -- -- 45
2019-08-07 18:00:00 27.2 9 Nordeste 15 Nordeste 0 -- -- 44
2019-08-07 17:00:00 27 7 Nordeste 17 Nordeste 0 -- -- 45
2019-08-07 16:00:00 27.1 3 Norte 21 Nordeste 0 -- -- 46
2019-08-07 15:00:00 25.9 5 Nordeste 21 Nordeste 0 -- -- 50
2019-08-07 14:00:00 25.7 13 Nordeste 22 Nordeste 0 -- -- 51
2019-08-07 13:00:00 27 12 Nordeste 21 Este 0 -- -- 45
2019-08-07 12:00:00 27.2 10 Nordeste 17 Oeste 0 -- -- 46
2019-08-07 11:00:00 24.3 9 Sudoeste 15 Sudoeste 0 -- -- 52
2019-08-07 10:00:00 22.4 8 Oeste 15 Noroeste 0 -- -- 61
2019-08-07 09:00:00 21.6 6 Norte 10 Noroeste 0 -- -- 64
2019-08-07 08:00:00 20.8 4 Sur 8 Sur 0 -- -- 67
2019-08-07 07:00:00 21 4 Sur 10 Sudoeste 0 -- -- 65
2019-08-07 06:00:00 20.8 8 Sudoeste 17 Noroeste 0 -- -- 68
2019-08-07 05:00:00 21.5 10 Noroeste 16 Noroeste 0 -- -- 66
2019-08-07 04:00:00 22.7 12 Noroeste 18 Noroeste 0 -- -- 62
2019-08-07 03:00:00 24.8 10 Noroeste 39 Sudoeste 0 -- -- 40
2019-08-07 02:00:00 26.4 27 Sudoeste 36 Sudoeste 0 -- -- 25
2019-08-07 01:00:00 27.9 27 Sudoeste 42 Sudoeste 0 -- -- 19
2019-08-07 00:00:00 28.2 34 Sudoeste 42 Sudoeste 0 -- -- 23
2019-08-06 23:00:00 26.9 8 Sur 19 Sur 0 -- -- 58
2019-08-06 22:00:00 28.5 14 Sudeste 21 Sudeste 0 -- -- 54
2019-08-06 21:00:00 30.2 13 Este 28 Este 0 -- -- 45
2019-08-06 20:00:00 31.3 18 Este 29 Este 0 -- -- 36
2019-08-06 19:00:00 31.5 26 Este 36 Este 0 -- -- 32
2019-08-06 18:00:00 32 21 Este 30 Este 0 -- -- 31
2019-08-06 17:00:00 31.3 21 Nordeste 35 Nordeste 0 -- -- 34
2019-08-06 16:00:00 31.9 24 Nordeste 41 Nordeste 0 -- -- 37
2019-08-06 15:00:00 31 18 Nordeste 36 Este 0 -- -- 39
2019-08-06 14:00:00 29.7 19 Este 32 Nordeste 0 -- -- 45
2019-08-06 13:00:00 28.7 13 Nordeste 22 Este 0 -- -- 47
2019-08-06 12:00:00 27.4 13 Nordeste 25 Nordeste 0 -- -- 50
2019-08-06 11:00:00 26.4 13 Nordeste 23 Nordeste 0 -- -- 54
2019-08-06 10:00:00 25.1 7 Nordeste 12 Nordeste 0 -- -- 57
2019-08-06 09:00:00 21.5 6 Oeste 13 Oeste 0 -- -- 68
2019-08-06 08:00:00 19.3 13 Oeste 18 Oeste 0 -- -- 76
2019-08-06 07:00:00 19.7 6 Sudoeste 14 Noroeste 0 -- -- 75
2019-08-06 06:00:00 20 11 Noroeste 22 Noroeste 0 -- -- 74
2019-08-06 05:00:00 20.7 11 Noroeste 17 Noroeste 0 -- -- 71
2019-08-06 04:00:00 21.3 14 Noroeste 28 Noroeste 0 -- -- 69
2019-08-06 03:00:00 23.3 13 Noroeste 21 Norte 0 -- -- 60
2019-08-06 02:00:00 25 15 Sudoeste 22 Sudoeste 0 -- -- 54
2019-08-06 01:00:00 24 18 Sur 22 Sur 0 -- -- 63
2019-08-06 00:00:00 24.1 16 Sudoeste 21 Sur 0 -- -- 62
2019-08-05 23:00:00 26.9 15 Sur 26 Sur 0 -- -- 54
2019-08-05 22:00:00 27 13 Sudeste 27 Sudeste 0 -- -- 53
2019-08-05 21:00:00 28.9 14 Este 26 Sudeste 0 -- -- 46
2019-08-05 20:00:00 31.3 16 Sudeste 38 Nordeste 0 -- -- 41
2019-08-05 19:00:00 31.4 26 Nordeste 37 Nordeste 0 -- -- 43
2019-08-05 18:00:00 32.1 27 Este 38 Nordeste 0 -- -- 40
2019-08-05 17:00:00 32 23 Este 40 Este 0 -- -- 39
2019-08-05 16:00:00 31.4 22 Este 34 Este 0 -- -- 42
2019-08-05 15:00:00 30.5 21 Este 31 Este 0 -- -- 43
2019-08-05 14:00:00 29.8 19 Nordeste 28 Nordeste 0 -- -- 44
2019-08-05 13:00:00 27.9 17 Nordeste 24 Este 0 -- -- 49
2019-08-05 12:00:00 26.7 8 Nordeste 18 Nordeste 0 -- -- 52
2019-08-05 11:00:00 24.7 7 Este 16 Nordeste 0 -- -- 58
2019-08-05 10:00:00 24.2 9 Nordeste 13 Nordeste 0 -- -- 60
2019-08-05 09:00:00 20.1 3 Oeste 12 Oeste 0 -- -- 74
2019-08-05 08:00:00 18.5 12 Oeste 15 Oeste 0 -- -- 79
2019-08-05 07:00:00 18.9 10 Oeste 21 Oeste 0 -- -- 77
2019-08-05 06:00:00 19.6 9 Oeste 12 Oeste 0 -- -- 77
2019-08-05 05:00:00 20.9 5 Sur 19 Oeste 0 -- -- 77
2019-08-05 04:00:00 21.5 15 Oeste 26 Noroeste 0 -- -- 78
2019-08-05 03:00:00 22.3 20 Noroeste 28 Noroeste 0 -- -- 75
2019-08-05 02:00:00 23.8 14 Noroeste 22 Sudoeste 0 -- -- 67
2019-08-05 01:00:00 25.4 17 Sudoeste 22 Sudoeste 0 -- -- 53
2019-08-05 00:00:00 24.6 21 Sudoeste 24 Sudoeste 0 -- -- 61
2019-08-04 23:00:00 25.9 13 Sur 16 Sur 0 -- -- 58
2019-08-04 22:00:00 26.5 7 Este 22 Sudeste 0 -- -- 57
2019-08-04 21:00:00 28 14 Sudeste 34 Este 0 -- -- 52
2019-08-04 20:00:00 29.3 28 Este 43 Este 0 -- -- 48
2019-08-04 19:00:00 31.2 26 Este 36 Este 0 -- -- 44
2019-08-04 18:00:00 32.2 21 Nordeste 46 Este 0 -- -- 37
2019-08-04 17:00:00 32.5 23 Este 38 Este 0 -- -- 35
2019-08-04 16:00:00 32.4 21 Nordeste 38 Este 0 -- -- 34
2019-08-04 15:00:00 31.5 21 Nordeste 32 Nordeste 0 -- -- 37
2019-08-04 14:00:00 30.3 19 Nordeste 28 Nordeste 0 -- -- 43
2019-08-04 13:00:00 29.1 14 Nordeste 23 Nordeste 0 -- -- 48
2019-08-04 12:00:00 28.6 12 Nordeste 20 Nordeste 0 -- -- 49
2019-08-04 11:00:00 26.9 3 Norte 13 Noroeste 0 -- -- 55
2019-08-04 10:00:00 24.2 6 Oeste 12 Noroeste 0 -- -- 64
2019-08-04 09:00:00 21.7 7 Sudoeste 9 Sudoeste 0 -- -- 67
2019-08-04 08:00:00 20.9 4 Sudoeste 6 Sur 0 -- -- 69
2019-08-04 07:00:00 21 4 Este 9 Sudoeste 0 -- -- 71
2019-08-04 06:00:00 22.3 5 Sudeste 9 Este 0 -- -- 66
2019-08-04 05:00:00 23.5 5 Nordeste 13 Oeste 0 -- -- 60
2019-08-04 04:00:00 24.3 9 Oeste 15 Oeste 0 -- -- 56
2019-08-04 03:00:00 24.1 10 Oeste 13 Oeste 0 -- -- 57
2019-08-04 02:00:00 24.4 8 Oeste 11 Noroeste 0 -- -- 59
2019-08-04 01:00:00 25.7 3 Este 23 Sudoeste 0 -- -- 53
2019-08-04 00:00:00 25 16 Sudoeste 22 Sudoeste 0 -- -- 57
2019-08-03 23:00:00 24.1 18 Sur 28 Sur 0 -- -- 65
2019-08-03 22:00:00 25.6 18 Sur 26 Sudeste 0 -- -- 58
2019-08-03 21:00:00 27.3 18 Sur 28 Sudeste 0 -- -- 52
2019-08-03 20:00:00 28.6 13 Sudeste 36 Sur 0 -- -- 50
2019-08-03 19:00:00 29.8 20 Sudeste 39 Nordeste 0 -- -- 47
2019-08-03 18:00:00 32.3 30 Nordeste 42 Nordeste 0 -- -- 39
2019-08-03 17:00:00 32.8 25 Nordeste 44 Nordeste 0 -- -- 37
2019-08-03 16:00:00 32.2 25 Nordeste 37 Este 0 -- -- 34
2019-08-03 15:00:00 31.3 23 Este 36 Este 0 -- -- 36
2019-08-03 14:00:00 29.9 24 Este 37 Este 0 -- -- 38
2019-08-03 13:00:00 28.8 21 Este 29 Nordeste 0 -- -- 37
2019-08-03 12:00:00 27.6 12 Nordeste 22 Este 0 -- -- 38
2019-08-03 11:00:00 26.5 12 Nordeste 18 Nordeste 0 -- -- 40
2019-08-03 10:00:00 25.3 9 Nordeste 13 Nordeste 0 -- -- 40
2019-08-03 09:00:00 21.5 5 Oeste 12 Oeste 0 -- -- 49
2019-08-03 08:00:00 19.9 10 Oeste 15 Oeste 0 -- -- 53
2019-08-03 07:00:00 19.6 13 Oeste 15 Oeste 0 -- -- 52
2019-08-03 06:00:00 20.6 10 Oeste 12 Oeste 0 -- -- 49
2019-08-03 05:00:00 21.1 11 Oeste 16 Oeste 0 -- -- 48
2019-08-03 04:00:00 21.4 13 Oeste 21 Oeste 0 -- -- 48
2019-08-03 03:00:00 22.4 19 Oeste 24 Oeste 0 -- -- 46
2019-08-03 02:00:00 23.8 12 Oeste 19 Oeste 0 -- -- 42
2019-08-03 01:00:00 25.1 14 Noroeste 16 Noroeste 0 -- -- 40
2019-08-03 00:00:00 26 8 Sur 10 Sur 0 -- -- 41
2019-08-02 23:00:00 26.9 5 Este 8 Norte 0 -- -- 38
2019-08-02 22:00:00 27.4 7 Norte 9 Norte 0 -- -- 37
2019-08-02 21:00:00 28.3 6 Nordeste 17 Nordeste 0 -- -- 35
2019-08-02 20:00:00 29 12 Nordeste 22 Nordeste 0 -- -- 34
2019-08-02 19:00:00 29.2 13 Nordeste 24 Nordeste 0 -- -- 37
2019-08-02 18:00:00 29.4 13 Nordeste 28 Nordeste 0 -- -- 39
2019-08-02 17:00:00 29.2 17 Nordeste 32 Nordeste 0 -- -- 40
2019-08-02 16:00:00 28.7 16 Nordeste 31 Nordeste 0 -- -- 41
2019-08-02 15:00:00 28.6 14 Nordeste 28 Nordeste 0 -- -- 43
2019-08-02 14:00:00 27.9 11 Nordeste 23 Nordeste 0 -- -- 45
2019-08-02 13:00:00 27 10 Nordeste 19 Nordeste 0 -- -- 48
2019-08-02 12:00:00 24.7 6 Noroeste 18 Oeste 0 -- -- 55
2019-08-02 11:00:00 23.6 8 Norte 15 Norte 0 -- -- 59
2019-08-02 10:00:00 20.6 10 Oeste 19 Oeste 0 -- -- 69
2019-08-02 09:00:00 18.8 14 Oeste 22 Oeste 0 -- -- 78
2019-08-02 08:00:00 17.1 14 Oeste 26 Oeste 0 -- -- 84
2019-08-02 07:00:00 16.9 20 Oeste 27 Oeste 0 -- -- 85
2019-08-02 06:00:00 17.3 19 Oeste 28 Oeste 0 -- -- 83
2019-08-02 05:00:00 17.9 23 Oeste 31 Oeste 0 -- -- 81
2019-08-02 04:00:00 18.5 22 Oeste 28 Oeste 0 -- -- 79
2019-08-02 03:00:00 19.2 22 Oeste 30 Oeste 0 -- -- 76
2019-08-02 02:00:00 21.1 18 Noroeste 33 Noroeste 0 -- -- 69
2019-08-02 01:00:00 22.6 19 Noroeste 30 Noroeste 0 -- -- 52
2019-08-02 00:00:00 24.2 21 Noroeste 32 Noroeste 0 -- -- 46
2019-08-01 23:00:00 25.6 8 Este 15 Nordeste 0 -- -- 47
2019-08-01 22:00:00 26.4 8 Este 23 Este 0 -- -- 45
2019-08-01 21:00:00 27.5 18 Este 30 Este 0 -- -- 41
2019-08-01 20:00:00 28.6 21 Nordeste 34 Nordeste 0 -- -- 40
2019-08-01 19:00:00 28.9 26 Nordeste 37 Nordeste 0 -- -- 39
2019-08-01 18:00:00 29.2 23 Este 35 Nordeste 0 -- -- 38
2019-08-01 17:00:00 29.4 20 Nordeste 36 Nordeste 0 -- -- 38
2019-08-01 16:00:00 29.2 19 Nordeste 31 Nordeste 0 -- -- 40
2019-08-01 15:00:00 28.2 17 Nordeste 31 Nordeste 0 -- -- 43
2019-08-01 14:00:00 27.6 15 Nordeste 25 Nordeste 0 -- -- 45
2019-08-01 13:00:00 26.6 19 Nordeste 24 Nordeste 0 -- -- 48
2019-08-01 12:00:00 25.3 14 Nordeste 25 Nordeste 0 -- -- 53
2019-08-01 11:00:00 24 8 Nordeste 24 Este 0 -- -- 55
2019-08-01 10:00:00 22.2 11 Este 20 Este 0 -- -- 59
2019-08-01 09:00:00 18.7 3 Oeste 13 Oeste 0 -- -- 82
2019-08-01 08:00:00 17 10 Oeste 16 Oeste 0 -- -- 91
2019-08-01 07:00:00 16.8 11 Oeste 14 Oeste 0 -- -- 87
2019-08-01 06:00:00 18.2 4 Sudoeste 16 Sudeste 0 -- -- 74
2019-08-01 05:00:00 18.8 12 Sudeste 17 Sudeste 0 -- -- 73
2019-08-01 04:00:00 19.3 2 Norte 22 Sur 0 -- -- 75
2019-08-01 03:00:00 19.9 18 Sur 23 Sur 0 -- -- 74
2019-08-01 02:00:00 20.7 17 Sur 24 Sur 0 -- -- 74
2019-08-01 01:00:00 21.2 9 Sur 14 Sur 0 -- -- 72
2019-08-01 00:00:00 22.2 4 Sudeste 17 Sur 0 -- -- 67
2019-07-31 23:00:00 22.7 11 Sur 23 Sur 0 -- -- 66
2019-07-31 22:00:00 23 14 Sudeste 22 Sudeste 0 -- -- 66
2019-07-31 21:00:00 23.8 11 Sudeste 26 Sudeste 0 -- -- 63
2019-07-31 20:00:00 24.8 18 Sudeste 35 Este 0 -- -- 59
2019-07-31 19:00:00 25.9 18 Este 42 Este 0 -- -- 54
2019-07-31 18:00:00 26.4 19 Este 39 Este 0 -- -- 51
2019-07-31 17:00:00 27.5 27 Este 44 Nordeste 0 -- -- 46
2019-07-31 16:00:00 26.5 27 Nordeste 42 Este 0 -- -- 41
2019-07-31 15:00:00 25.2 27 Nordeste 39 Este 0 -- -- 39
2019-07-31 14:00:00 23.4 22 Este 36 Este 0 -- -- 40
2019-07-31 13:00:00 22.2 19 Este 28 Este 0 -- -- 42
2019-07-31 12:00:00 21 15 Este 24 Este 0 -- -- 41
2019-07-31 11:00:00 20.1 6 Este 18 Nordeste 0 -- -- 46
2019-07-31 10:00:00 18.3 7 Nordeste 15 Nordeste 0 -- -- 50
2019-07-31 09:00:00 15.1 11 Oeste 22 Oeste 0 -- -- 60
2019-07-31 08:00:00 13.7 18 Oeste 23 Oeste 0 -- -- 64
2019-07-31 07:00:00 13 17 Oeste 21 Oeste 0 -- -- 66
2019-07-31 06:00:00 13.4 17 Oeste 23 Oeste 0 -- -- 64
2019-07-31 05:00:00 13.6 17 Oeste 27 Oeste 0 -- -- 63
2019-07-31 04:00:00 14.1 15 Oeste 25 Oeste 0 -- -- 60
2019-07-31 03:00:00 14.7 17 Oeste 26 Oeste 0 -- -- 58
2019-07-31 02:00:00 15.3 20 Oeste 30 Oeste 0 -- -- 56
2019-07-31 01:00:00 16.7 17 Oeste 26 Oeste 0 -- -- 54
2019-07-31 00:00:00 17.8 21 Noroeste 33 Noroeste 0 -- -- 51
2019-07-30 23:00:00 19 24 Noroeste 33 Noroeste 0 -- -- 48
2019-07-30 22:00:00 20.4 24 Noroeste 35 Noroeste 0 -- -- 44
2019-07-30 21:00:00 22.1 21 Norte 31 Norte 0 -- -- 40
2019-07-30 20:00:00 23.5 19 Norte 32 Norte 0 -- -- 38
2019-07-30 19:00:00 24.5 19 Norte 36 Norte 0 -- -- 37
2019-07-30 18:00:00 25.4 17 Norte 32 Noroeste 0 -- -- 36
2019-07-30 17:00:00 25.8 17 Norte 34 Noroeste 0 -- -- 35
2019-07-30 16:00:00 26 16 Norte 32 Noroeste 0 -- -- 36
2019-07-30 15:00:00 25.2 14 Norte 29 Norte 0 -- -- 38
2019-07-30 14:00:00 24.2 13 Noroeste 31 Noroeste 0 -- -- 41
2019-07-30 13:00:00 22.7 14 Noroeste 30 Oeste 0 -- -- 45
2019-07-30 12:00:00 21 18 Oeste 31 Oeste 0 -- -- 51
2019-07-30 11:00:00 19.2 18 Oeste 30 Oeste 0 -- -- 57
2019-07-30 10:00:00 17.7 22 Oeste 39 Oeste 0 -- -- 64
2019-07-30 09:00:00 15.6 32 Oeste 39 Oeste 0 -- -- 73
2019-07-30 08:00:00 14.5 22 Oeste 32 Oeste 0 -- -- 77
2019-07-30 07:00:00 14.4 29 Oeste 40 Oeste 0 -- -- 79
2019-07-30 06:00:00 14.8 29 Oeste 35 Oeste 0 -- -- 77
2019-07-30 05:00:00 15.4 24 Oeste 36 Oeste 0 -- -- 75
2019-07-30 04:00:00 16.1 24 Oeste 37 Oeste 0 -- -- 73
2019-07-30 03:00:00 17.1 28 Oeste 42 Oeste 0 -- -- 70
2019-07-30 02:00:00 18.4 30 Oeste 42 Oeste 0 -- -- 67
2019-07-30 01:00:00 20.8 30 Oeste 44 Noroeste 0 -- -- 59
2019-07-30 00:00:00 23.3 19 Sur 24 Sur 0 -- -- 60
2019-07-29 23:00:00 24.3 14 Sur 26 Sudeste 0 -- -- 60
2019-07-29 22:00:00 25.4 18 Sur 27 Sur 0 -- -- 57
2019-07-29 21:00:00 27.5 15 Este 34 Este 0 -- -- 48
2019-07-29 20:00:00 29.4 26 Este 46 Nordeste 0 -- -- 42
2019-07-29 19:00:00 30.1 27 Este 38 Este 0 -- -- 28
2019-07-29 18:00:00 30.4 16 Nordeste 37 Este 0 -- -- 27
2019-07-29 17:00:00 30.2 22 Nordeste 36 Nordeste 0 -- -- 28
2019-07-29 16:00:00 29.8 19 Nordeste 36 Este 0 -- -- 28
2019-07-29 15:00:00 29 20 Nordeste 36 Nordeste 0 -- -- 29
2019-07-29 14:00:00 28.7 18 Nordeste 31 Nordeste 0 -- -- 31
2019-07-29 13:00:00 28.1 15 Nordeste 25 Este 0 -- -- 34
2019-07-29 12:00:00 26.7 12 Nordeste 20 Nordeste 0 -- -- 37
2019-07-29 11:00:00 24.9 8 Este 14 Nordeste 0 -- -- 41
2019-07-29 10:00:00 22.8 4 Noroeste 9 Noroeste 0 -- -- 46
2019-07-29 09:00:00 20.2 0 Calma 8 Nordeste 0 -- -- 52
2019-07-29 08:00:00 17.3 0 Calma 9 Oeste 0 -- -- 59
2019-07-29 07:00:00 16.4 5 Sudoeste 8 Sur 0 -- -- 61
2019-07-29 06:00:00 17.1 6 Sur 12 Sur 0 -- -- 58
2019-07-29 05:00:00 17.2 12 Sur 14 Sur 0 -- -- 58
2019-07-29 04:00:00 17.3 9 Oeste 11 Oeste 0 -- -- 58
2019-07-29 03:00:00 18.4 7 Sudoeste 9 Sudoeste 0 -- -- 54
2019-07-29 02:00:00 18.8 6 Oeste 13 Oeste 0 -- -- 53
2019-07-29 01:00:00 19.2 10 Oeste 16 Norte 0 -- -- 52
2019-07-29 00:00:00 20 11 Noroeste 14 Noroeste 0 -- -- 50
2019-07-28 23:00:00 20.5 11 Norte 14 Norte 0 -- -- 49
2019-07-28 22:00:00 21.4 11 Nordeste 17 Nordeste 0 -- -- 46
2019-07-28 21:00:00 22.5 17 Nordeste 25 Nordeste 0 -- -- 42
2019-07-28 20:00:00 23.5 12 Nordeste 26 Nordeste 0 -- -- 40
2019-07-28 19:00:00 24 15 Nordeste 30 Nordeste 0 -- -- 38
2019-07-28 18:00:00 24.9 17 Norte 33 Norte 0 -- -- 36
2019-07-28 17:00:00 25 13 Nordeste 35 Norte 0 -- -- 35
2019-07-28 16:00:00 25 14 Norte 39 Norte 0 -- -- 36
2019-07-28 15:00:00 24.4 20 Norte 38 Noroeste 0 -- -- 39
2019-07-28 14:00:00 23.1 21 Norte 41 Norte 0 -- -- 42
2019-07-28 13:00:00 21.6 21 Noroeste 37 Oeste 0 -- -- 44
2019-07-28 12:00:00 20 28 Noroeste 46 Noroeste 0 -- -- 49
2019-07-28 11:00:00 18.6 30 Noroeste 42 Noroeste 0 -- -- 51
2019-07-28 10:00:00 16.9 30 Oeste 53 Oeste 0 -- -- 62
2019-07-28 09:00:00 14.7 39 Oeste 50 Oeste 0 -- -- 69
2019-07-28 08:00:00 13.3 33 Oeste 47 Oeste 0 -- -- 75
2019-07-28 07:00:00 12.9 33 Oeste 46 Oeste 0 -- -- 77
2019-07-28 06:00:00 13.1 30 Oeste 58 Oeste 0 -- -- 75
2019-07-28 05:00:00 13.1 46 Oeste 57 Oeste 0 -- -- 76
2019-07-28 04:00:00 13.4 46 Oeste 61 Oeste 0 -- -- 76
2019-07-28 03:00:00 13.7 52 Oeste 64 Oeste 0 -- -- 75
2019-07-28 02:00:00 14.1 40 Oeste 54 Oeste 0 -- -- 75
2019-07-28 01:00:00 14.5 37 Oeste 47 Oeste 0 -- -- 75
2019-07-28 00:00:00 15.3 34 Oeste 46 Noroeste 0 -- -- 71
2019-07-27 23:00:00 16.1 34 Noroeste 53 Noroeste 0 -- -- 66
2019-07-26 12:00:00 -- -- -- -- -- -- -- -- --
2019-07-26 11:00:00 21.7 14 Oeste 25 Oeste 0 -- -- 73
2019-07-26 10:00:00 20.9 15 Oeste 27 Oeste 0 -- -- 78
2019-07-26 09:00:00 19.8 20 Oeste 30 Noroeste 0.2 -- -- 84
2019-07-26 08:00:00 21 18 Noroeste 39 Noroeste 0 -- -- 74
2019-07-26 07:00:00 21 31 Noroeste 43 Noroeste 0 -- -- 67
2019-07-26 06:00:00 24.5 3 Este 12 Este 0 -- -- 37
2019-07-26 05:00:00 24.1 6 Este 12 Este 0 -- -- 40
2019-07-26 04:00:00 23.8 4 Sudeste 26 Sur 0 -- -- 42
2019-07-26 03:00:00 23.3 16 Sur 27 Sur 0 -- -- 44
2019-07-26 02:00:00 24.6 15 Sur 20 Sur 0 -- -- 46
2019-07-26 01:00:00 24.8 18 Sur 23 Sur 0 -- -- 46
2019-07-26 00:00:00 25.2 10 Sur 21 Sudoeste 0 -- -- 49